MSC Giovanna — 3FRB9 — position and weather

sailwx.info

Track history (hours):
 
Tides and Currents Weather Stations Pressure Air Temp Water Temp Dewpoint Dewpoint Depression Visibility Wind Speed Wind Dir Waves Ship Positions

MSC Giovanna

Last reported at 2018-Jan-18 03:06 UTC. Time now 2018-Jan-20 19:18 UTC.
Position N 32°50' E 035°01'.

Length 178 m; draft 9.6 m.

Type: Ship (hazmat cat A). MMSI: 357702000.

Date/timePositionNaut miles runAvg speedWind from/ knotsBaromVisibWave heightAir tempDewpointWater temp
2018-Jan-18 03:06N 32°50' E 035°01'5 6.3
2018-Jan-18 02:21N 32°52' E 034°56'310.0
2018-Jan-18 02:00N 32°52' E 034°52'713.8
2018-Jan-18 01:30N 32°46' E 034°49'815.2
2018-Jan-18 01:01N 32°39' E 034°46'1615.6
2018-Jan-18 00:00N 32°24' E 034°40'115.0
2018-Jan-17 23:57N 32°23' E 034°40'  
2018-Jan-11 10:00N 35°60' E 030°30'17213.6
2018-Jan-10 21:20N 36°32' E 027°01'1613.8
2018-Jan-10 20:09N 36°41' E 026°44'213.7
2018-Jan-10 20:00N 36°42' E 026°42'713.5
2018-Jan-10 19:30N 36°46' E 026°35'713.3
2018-Jan-10 19:00N 36°50' E 026°28'713.9
2018-Jan-10 18:30N 36°54' E 026°21'713.7
2018-Jan-10 18:00N 36°58' E 026°14'713.6
2018-Jan-10 17:31N 37°03' E 026°08'714.2
2018-Jan-10 17:01N 37°09' E 026°04'714.4
2018-Jan-10 16:31N 37°16' E 026°01'714.8
2018-Jan-10 16:01N 37°23' E 025°57'714.5
2018-Jan-10 15:30N 37°29' E 025°54'713.9
2018-Jan-10 15:00N 37°36' E 025°51'714.5
2018-Jan-10 14:30N 37°43' E 025°50'714.4
2018-Jan-10 14:00N 37°50' E 025°48'1214.6
2018-Jan-10 13:12N 38°02' E 025°47'514.7
2018-Jan-10 12:50N 38°07' E 025°47'1714.6
2018-Jan-10 11:39N 38°24' E 025°45'914.8
2018-Jan-10 11:04N 38°33' E 025°43'414.6
2018-Jan-10 10:48N 38°36' E 025°46'26 0.8
2018-Jan-09 00:51N 38°53' E 026°12'5212.7
2018-Jan-08 20:45N 39°43' E 025°52'614.4
2018-Jan-08 20:19N 39°49' E 025°51'514.5
2018-Jan-08 20:00N 39°54' E 025°52'  
Track history (hours):
 
Tides and Currents Weather Stations Pressure Air Temp Water Temp Dewpoint Dewpoint Depression Visibility Wind Speed Wind Dir Waves Ship Positions

MSC Giovanna

Last reported at 2018-Jan-18 03:06 UTC. Time now 2018-Jan-20 19:18 UTC.
Position N 32°50' E 035°01'.

Length 178 m; draft 9.6 m.

Type: Ship (hazmat cat A). MMSI: 357702000.

Date/timePositionNaut miles runAvg speedWind from/ knotsBaromVisibWave heightAir tempDewpointWater temp
2018-Jan-18 03:06N 32°50' E 035°01'5 6.3
2018-Jan-18 02:21N 32°52' E 034°56'310.0
2018-Jan-18 02:00N 32°52' E 034°52'713.8
2018-Jan-18 01:30N 32°46' E 034°49'815.2
2018-Jan-18 01:01N 32°39' E 034°46'1615.6
2018-Jan-18 00:00N 32°24' E 034°40'115.0
2018-Jan-17 23:57N 32°23' E 034°40'  
2018-Jan-11 10:00N 35°60' E 030°30'17213.6
2018-Jan-10 21:20N 36°32' E 027°01'1613.8
2018-Jan-10 20:09N 36°41' E 026°44'213.7
2018-Jan-10 20:00N 36°42' E 026°42'713.5
2018-Jan-10 19:30N 36°46' E 026°35'713.3
2018-Jan-10 19:00N 36°50' E 026°28'713.9
2018-Jan-10 18:30N 36°54' E 026°21'713.7
2018-Jan-10 18:00N 36°58' E 026°14'713.6
2018-Jan-10 17:31N 37°03' E 026°08'714.2
2018-Jan-10 17:01N 37°09' E 026°04'714.4
2018-Jan-10 16:31N 37°16' E 026°01'714.8
2018-Jan-10 16:01N 37°23' E 025°57'714.5
2018-Jan-10 15:30N 37°29' E 025°54'713.9
2018-Jan-10 15:00N 37°36' E 025°51'714.5
2018-Jan-10 14:30N 37°43' E 025°50'714.4
2018-Jan-10 14:00N 37°50' E 025°48'1214.6
2018-Jan-10 13:12N 38°02' E 025°47'514.7
2018-Jan-10 12:50N 38°07' E 025°47'1714.6
2018-Jan-10 11:39N 38°24' E 025°45'914.8
2018-Jan-10 11:04N 38°33' E 025°43'414.6
2018-Jan-10 10:48N 38°36' E 025°46'26 0.8
2018-Jan-09 00:51N 38°53' E 026°12'5212.7
2018-Jan-08 20:45N 39°43' E 025°52'614.4
2018-Jan-08 20:19N 39°49' E 025°51'514.5
2018-Jan-08 20:00N 39°54' E 025°52'  

Dump ship's entire track history